createdAt,value
2023-09-13T00:00:04.811Z,75.60
2023-09-13T00:02:42.048Z,75.20
2023-09-13T00:05:10.452Z,74.80
2023-09-13T00:07:39.970Z,74.50
2023-09-13T00:10:08.836Z,74.50
2023-09-13T00:12:37.043Z,74.60
2023-09-13T00:15:05.744Z,74.90
2023-09-13T00:17:34.407Z,75.00
2023-09-13T00:20:04.319Z,75.10
2023-09-13T00:22:32.358Z,75.20
2023-09-13T00:25:01.851Z,75.40
2023-09-13T00:27:29.979Z,75.50
2023-09-13T00:29:58.241Z,75.60
2023-09-13T00:32:26.298Z,75.60
2023-09-13T00:34:54.557Z,75.60
2023-09-13T00:37:22.617Z,75.80
2023-09-13T00:39:50.648Z,75.80
2023-09-13T00:42:20.058Z,75.40
2023-09-13T00:44:48.463Z,75.00
2023-09-13T00:47:17.790Z,74.60
2023-09-13T00:49:46.140Z,74.50
2023-09-13T00:52:14.220Z,74.70
2023-09-13T00:54:42.655Z,75.00
2023-09-13T00:57:10.708Z,75.00
2023-09-13T00:59:40.172Z,75.10
2023-09-13T01:02:08.390Z,75.10
2023-09-13T01:04:36.494Z,75.50
2023-09-13T01:07:04.741Z,75.60
2023-09-13T01:09:32.830Z,75.40
2023-09-13T01:12:00.910Z,75.20
2023-09-13T01:14:28.907Z,75.20
2023-09-13T01:17:01.651Z,75.30
2023-09-13T01:19:51.253Z,75.50
2023-09-13T01:22:42.304Z,75.40
2023-09-13T01:25:30.336Z,75.40
2023-09-13T01:28:01.315Z,75.50
2023-09-13T01:30:30.681Z,75.70
2023-09-13T01:32:59.599Z,75.70
2023-09-13T01:35:27.864Z,75.70
2023-09-13T01:37:55.877Z,75.70
2023-09-13T01:40:23.923Z,75.90
2023-09-13T01:42:51.942Z,75.80
2023-09-13T01:45:20.117Z,75.50
2023-09-13T01:47:49.670Z,75.10
2023-09-13T01:50:17.751Z,74.80
2023-09-13T01:52:45.716Z,74.70
2023-09-13T01:55:14.292Z,74.80
2023-09-13T01:57:42.585Z,75.10
2023-09-13T02:00:12.238Z,75.20
2023-09-13T02:02:40.275Z,75.20
2023-09-13T02:05:10.282Z,75.30
2023-09-13T02:07:38.360Z,75.60
2023-09-13T02:10:07.523Z,75.70
2023-09-13T02:12:35.728Z,75.70
2023-09-13T02:15:05.478Z,75.60
2023-09-13T02:17:33.734Z,76.00
2023-09-13T02:20:01.845Z,76.00
2023-09-13T02:22:32.289Z,75.60
2023-09-13T02:25:01.405Z,75.30
2023-09-13T02:27:29.416Z,74.90
2023-09-13T02:29:57.425Z,74.60
2023-09-13T02:32:25.555Z,74.60
2023-09-13T02:34:53.913Z,74.70
2023-09-13T02:37:21.992Z,75.10
2023-09-13T02:39:51.439Z,75.10
2023-09-13T02:42:19.434Z,75.90
2023-09-13T02:44:47.468Z,75.20
2023-09-13T02:47:15.877Z,75.60
2023-09-13T02:49:44.046Z,75.60
2023-09-13T02:52:12.042Z,75.60
2023-09-13T02:54:40.019Z,75.60
2023-09-13T02:57:09.889Z,75.80
2023-09-13T02:59:37.955Z,76.00
2023-09-13T03:02:06.313Z,75.80
2023-09-13T03:04:34.479Z,75.40
2023-09-13T03:07:02.587Z,75.00
2023-09-13T03:09:30.616Z,74.80
2023-09-13T03:11:59.192Z,74.80
2023-09-13T03:14:28.712Z,75.00
2023-09-13T03:16:56.853Z,75.30
2023-09-13T03:19:25.094Z,75.20
2023-09-13T03:21:53.203Z,75.30
2023-09-13T03:24:21.711Z,75.50
2023-09-13T03:26:49.956Z,75.70
2023-09-13T03:29:18.698Z,75.70
2023-09-13T03:31:48.212Z,76.30
2023-09-13T03:34:16.544Z,75.60
2023-09-13T03:36:44.883Z,76.10
2023-09-13T03:39:13.408Z,76.00
2023-09-13T03:41:41.469Z,75.90
2023-09-13T03:44:11.103Z,75.70
2023-09-13T03:46:39.662Z,76.10
2023-09-13T03:49:09.618Z,76.20
2023-09-13T03:51:37.692Z,75.90
2023-09-13T03:54:06.158Z,75.60
2023-09-13T03:56:35.625Z,75.20
2023-09-13T03:59:03.788Z,74.80
2023-09-13T04:01:31.952Z,74.60
2023-09-13T04:04:00.189Z,74.80
2023-09-13T04:06:29.944Z,75.10
2023-09-13T04:08:58.094Z,75.80
2023-09-13T04:11:27.265Z,75.20
2023-09-13T04:13:55.281Z,75.00
2023-09-13T04:16:23.557Z,75.30
2023-09-13T04:18:51.625Z,75.70
2023-09-13T04:21:19.717Z,75.60
2023-09-13T04:23:49.205Z,75.30
2023-09-13T04:26:22.548Z,75.20
2023-09-13T04:28:50.881Z,75.00
2023-09-13T04:31:19.271Z,74.70
2023-09-13T04:33:51.267Z,74.90
2023-09-13T04:36:21.733Z,75.10
2023-09-13T04:38:51.500Z,75.00
2023-09-13T04:41:19.714Z,75.40
2023-09-13T04:43:48.115Z,75.60
2023-09-13T04:46:19.470Z,75.40
2023-09-13T04:48:47.578Z,75.20
2023-09-13T04:51:15.732Z,75.00
2023-09-13T04:53:44.348Z,74.90
2023-09-13T04:56:13.930Z,75.30
2023-09-13T04:58:46.365Z,75.30
2023-09-13T05:01:14.508Z,75.30
2023-09-13T05:03:42.917Z,75.20
2023-09-13T05:06:11.087Z,75.50
2023-09-13T05:08:39.324Z,75.70
2023-09-13T05:11:07.386Z,75.50
2023-09-13T05:13:39.341Z,75.90
2023-09-13T05:16:07.448Z,74.80
2023-09-13T05:18:35.524Z,74.70
2023-09-13T05:21:03.898Z,74.70
2023-09-13T05:23:32.032Z,74.70
2023-09-13T05:26:00.035Z,75.10
2023-09-13T05:28:32.760Z,75.80
2023-09-13T05:31:02.372Z,75.10
2023-09-13T05:33:30.507Z,74.90
2023-09-13T05:35:58.472Z,75.40
2023-09-13T05:38:26.428Z,75.40
2023-09-13T05:40:54.409Z,75.40
2023-09-13T05:43:22.512Z,75.10
2023-09-13T05:45:51.579Z,76.20
2023-09-13T05:48:21.046Z,75.40
2023-09-13T05:50:49.027Z,74.80
2023-09-13T05:53:19.519Z,74.30
2023-09-13T05:55:47.682Z,74.00
2023-09-13T05:58:15.792Z,73.80
2023-09-13T06:00:43.945Z,73.90
2023-09-13T06:03:12.285Z,74.10
2023-09-13T06:05:43.832Z,74.40
2023-09-13T06:08:11.900Z,74.30
2023-09-13T06:10:39.890Z,74.30
2023-09-13T06:13:07.910Z,74.40
2023-09-13T06:15:35.978Z,74.50
2023-09-13T06:18:04.129Z,74.40
2023-09-13T06:20:32.458Z,74.50
2023-09-13T06:23:02.397Z,74.50
2023-09-13T06:25:30.439Z,74.90
2023-09-13T06:28:01.487Z,74.80
2023-09-13T06:30:29.612Z,74.40
2023-09-13T06:33:09.560Z,74.00
2023-09-13T06:35:39.961Z,73.60
2023-09-13T06:38:09.866Z,73.40
2023-09-13T06:40:39.072Z,73.20
2023-09-13T06:43:22.885Z,73.50
2023-09-13T06:46:04.110Z,73.50
2023-09-13T06:48:34.248Z,73.60
2023-09-13T06:51:47.035Z,73.90
2023-09-13T06:53:55.001Z,73.90
2023-09-13T06:56:24.567Z,74.30
2023-09-13T06:58:58.505Z,74.10
2023-09-13T07:04:08.612Z,73.90
2023-09-13T07:06:37.869Z,73.90
2023-09-13T07:09:07.334Z,74.00
2023-09-13T07:11:35.285Z,73.80
2023-09-13T07:14:03.432Z,74.00
2023-09-13T07:16:32.649Z,74.10
2023-09-13T07:19:02.696Z,74.10
2023-09-13T07:21:32.479Z,73.90
2023-09-13T07:24:00.710Z,74.00
2023-09-13T07:26:30.023Z,74.10
2023-09-13T07:28:58.139Z,74.10
2023-09-13T07:31:26.202Z,73.90
2023-09-13T07:33:54.351Z,73.90
2023-09-13T07:36:24.146Z,73.60
2023-09-13T07:38:54.165Z,73.10
2023-09-13T07:41:22.133Z,72.70
2023-09-13T07:43:51.512Z,72.70
2023-09-13T07:46:19.545Z,73.00
2023-09-13T07:48:47.546Z,73.00
2023-09-13T07:51:15.601Z,72.90
2023-09-13T07:53:43.774Z,73.20
2023-09-13T07:56:12.094Z,73.50
2023-09-13T07:58:40.262Z,73.40
2023-09-13T08:01:09.634Z,73.30
2023-09-13T08:03:37.804Z,73.30
2023-09-13T08:06:05.865Z,73.50
2023-09-13T08:08:34.666Z,73.50
2023-09-13T08:11:03.285Z,73.30
2023-09-13T08:13:31.399Z,73.20
2023-09-13T08:15:59.605Z,72.80
2023-09-13T08:18:29.048Z,72.40
2023-09-13T08:20:57.027Z,72.90
2023-09-13T08:23:25.285Z,72.20
2023-09-13T08:25:53.295Z,72.60
2023-09-13T08:28:21.292Z,72.60
2023-09-13T08:30:50.303Z,72.60
2023-09-13T08:33:18.393Z,72.80
2023-09-13T08:35:48.556Z,73.10
2023-09-13T08:38:16.552Z,73.20
2023-09-13T08:40:45.375Z,73.20
2023-09-13T08:43:13.659Z,73.20
2023-09-13T08:45:41.663Z,73.30
2023-09-13T08:48:10.653Z,73.50
2023-09-13T08:50:38.913Z,73.30
2023-09-13T08:53:08.419Z,73.10
2023-09-13T08:55:36.492Z,73.60
2023-09-13T08:58:05.051Z,72.60
2023-09-13T09:00:33.703Z,72.40
2023-09-13T09:03:04.119Z,72.40
2023-09-13T09:05:32.619Z,72.60
2023-09-13T09:08:00.990Z,72.80
2023-09-13T09:10:30.409Z,72.80
2023-09-13T09:12:59.703Z,72.80
2023-09-13T09:15:27.765Z,73.10
2023-09-13T09:17:56.969Z,73.40
2023-09-13T09:20:29.724Z,73.40
2023-09-13T09:22:59.137Z,73.20
2023-09-13T09:25:30.712Z,72.70
2023-09-13T09:27:58.783Z,72.30
2023-09-13T09:30:33.951Z,72.00
2023-09-13T09:33:02.672Z,72.20
2023-09-13T09:35:30.854Z,72.50
2023-09-13T09:37:58.900Z,72.60
2023-09-13T09:40:29.691Z,72.50
2023-09-13T09:42:59.714Z,72.80
2023-09-13T09:45:27.901Z,73.10
2023-09-13T09:47:55.914Z,73.20
2023-09-13T09:50:24.065Z,72.80
2023-09-13T09:52:52.299Z,72.90
2023-09-13T09:55:22.972Z,73.20
2023-09-13T09:57:51.872Z,73.40
2023-09-13T10:00:22.717Z,73.40
2023-09-13T10:02:50.802Z,72.50
2023-09-13T10:05:20.073Z,72.20
2023-09-13T10:07:51.887Z,71.80
2023-09-13T10:10:33.677Z,71.50
2023-09-13T10:13:02.147Z,71.90
2023-09-13T10:15:31.541Z,72.10
2023-09-13T10:17:59.652Z,71.80
2023-09-13T10:20:28.021Z,71.70
2023-09-13T10:22:57.223Z,72.20
2023-09-13T10:25:25.838Z,72.50
2023-09-13T10:27:55.420Z,72.70
2023-09-13T10:30:26.115Z,72.30
2023-09-13T10:32:58.734Z,72.40
2023-09-13T10:35:28.000Z,72.70
2023-09-13T10:38:00.124Z,72.80
2023-09-13T10:40:30.724Z,72.30
2023-09-13T10:42:58.730Z,72.30
2023-09-13T10:45:26.728Z,72.60
2023-09-13T10:47:56.630Z,72.90
2023-09-13T10:50:24.910Z,72.30
2023-09-13T10:52:53.001Z,71.80
2023-09-13T10:55:20.999Z,71.60
2023-09-13T10:57:48.941Z,71.20
2023-09-13T11:00:17.534Z,70.80
2023-09-13T11:02:47.829Z,70.60
2023-09-13T11:05:18.528Z,70.70
2023-09-13T11:07:48.117Z,71.20
2023-09-13T11:10:16.980Z,70.80
2023-09-13T11:12:49.780Z,70.80
2023-09-13T11:15:21.564Z,71.30
2023-09-13T11:17:49.786Z,71.60
2023-09-13T11:20:31.316Z,72.00
2023-09-13T11:23:05.212Z,71.20
2023-09-13T11:25:54.604Z,71.50
2023-09-13T11:28:44.533Z,72.00
2023-09-13T11:31:14.944Z,71.30
2023-09-13T11:33:47.919Z,71.00
2023-09-13T11:36:19.183Z,70.60
2023-09-13T11:38:47.361Z,70.50
2023-09-13T11:41:18.024Z,70.10
2023-09-13T11:43:57.418Z,70.50
2023-09-13T11:46:30.035Z,70.90
2023-09-13T11:49:03.297Z,70.90
2023-09-13T11:54:16.026Z,71.20
2023-09-13T11:56:47.306Z,71.40
2023-09-13T11:59:18.366Z,71.60
2023-09-13T12:01:49.334Z,71.60
2023-09-13T12:06:58.404Z,71.80
2023-09-13T12:09:30.124Z,72.10
2023-09-13T12:12:02.759Z,71.80
2023-09-13T12:14:50.846Z,72.00
2023-09-13T12:17:22.477Z,72.00
2023-09-13T12:19:52.089Z,72.20
2023-09-13T12:22:24.112Z,71.90
2023-09-13T12:24:53.836Z,71.60
2023-09-13T12:27:21.994Z,71.30
2023-09-13T12:29:50.053Z,70.90
2023-09-13T12:32:18.172Z,70.60
2023-09-13T12:34:46.193Z,70.50
2023-09-13T12:37:14.244Z,70.80
2023-09-13T12:39:44.007Z,70.70
2023-09-13T12:42:13.081Z,70.70
2023-09-13T12:44:41.139Z,70.80
2023-09-13T12:47:11.479Z,71.20
2023-09-13T12:49:40.149Z,71.30
2023-09-13T12:52:08.207Z,71.30
2023-09-13T12:54:36.361Z,71.30
2023-09-13T12:57:06.370Z,72.10
2023-09-13T12:59:45.002Z,71.40
2023-09-13T13:02:17.065Z,70.80
2023-09-13T13:04:45.364Z,70.30
2023-09-13T13:07:21.277Z,70.30
2023-09-13T13:09:52.197Z,69.90
2023-09-13T13:12:21.766Z,69.60
2023-09-13T13:14:53.137Z,69.60
2023-09-13T13:17:22.420Z,70.00
2023-09-13T13:19:56.874Z,70.00
2023-09-13T13:22:26.195Z,69.70
2023-09-13T13:24:54.438Z,70.00
2023-09-13T13:27:23.912Z,70.30
2023-09-13T13:29:52.424Z,70.60
2023-09-13T13:32:20.452Z,70.20
2023-09-13T13:34:49.385Z,70.20
2023-09-13T13:37:17.611Z,70.50
2023-09-13T13:39:45.691Z,70.80
2023-09-13T13:42:13.753Z,71.40
2023-09-13T13:44:43.152Z,71.70
2023-09-13T13:47:11.141Z,71.70
2023-09-13T13:49:39.581Z,71.60
2023-09-13T13:52:08.210Z,72.50
2023-09-13T13:54:36.852Z,72.60
2023-09-13T13:57:05.485Z,72.30
2023-09-13T13:59:34.442Z,72.20
2023-09-13T14:02:05.198Z,72.00
2023-09-13T14:04:33.483Z,71.80
2023-09-13T14:07:01.561Z,71.80
2023-09-13T14:09:31.002Z,72.00
2023-09-13T14:11:59.148Z,72.40
2023-09-13T14:14:29.449Z,72.50
2023-09-13T14:16:57.604Z,72.30
2023-09-13T14:19:27.027Z,72.30
2023-09-13T14:21:55.106Z,73.30
2023-09-13T14:24:23.425Z,73.20
2023-09-13T14:26:51.479Z,73.00
2023-09-13T14:29:19.480Z,72.80
2023-09-13T14:31:47.605Z,73.70
2023-09-13T14:34:15.703Z,73.70
2023-09-13T14:36:45.237Z,73.40
2023-09-13T14:39:14.045Z,73.10
2023-09-13T14:41:42.355Z,72.80
2023-09-13T14:44:10.449Z,72.60
2023-09-13T14:46:38.607Z,72.70
2023-09-13T14:49:06.795Z,72.50
2023-09-13T14:51:35.446Z,73.30
2023-09-13T14:54:05.142Z,73.30
2023-09-13T14:56:33.108Z,72.50
2023-09-13T14:59:01.053Z,72.70
2023-09-13T15:01:29.103Z,72.50
2023-09-13T15:03:57.294Z,72.50
2023-09-13T15:06:25.880Z,72.30
2023-09-13T15:08:53.926Z,72.20
2023-09-13T15:11:23.381Z,72.10
2023-09-13T15:13:51.474Z,72.00
2023-09-13T15:16:19.788Z,72.20
2023-09-13T15:18:48.292Z,72.40
2023-09-13T15:21:16.657Z,72.50
2023-09-13T15:23:45.177Z,72.80
2023-09-13T15:26:13.250Z,72.60
2023-09-13T15:28:42.583Z,72.80
2023-09-13T15:31:10.685Z,73.20
2023-09-13T15:33:38.794Z,73.30
2023-09-13T15:36:06.996Z,73.30
2023-09-13T15:38:45.697Z,73.10
2023-09-13T15:41:21.419Z,73.70
2023-09-13T15:43:50.870Z,73.70
2023-09-13T15:46:19.020Z,73.50
2023-09-13T15:48:48.099Z,73.90
2023-09-13T15:51:16.798Z,72.70
2023-09-13T15:53:44.960Z,72.60
2023-09-13T15:56:12.980Z,72.60
2023-09-13T15:58:42.194Z,72.60
2023-09-13T16:01:11.918Z,73.20
2023-09-13T16:03:40.094Z,74.10
2023-09-13T16:06:08.136Z,73.30
2023-09-13T16:08:36.244Z,73.20
2023-09-13T16:11:04.521Z,73.80
2023-09-13T16:13:33.299Z,73.90
2023-09-13T16:16:01.576Z,73.70
2023-09-13T16:18:30.966Z,73.50
2023-09-13T16:20:58.956Z,74.10
2023-09-13T16:23:26.985Z,74.20
2023-09-13T16:25:54.979Z,74.00
2023-09-13T16:28:22.992Z,73.70
2023-09-13T16:30:51.118Z,73.20
2023-09-13T16:33:19.316Z,73.10
2023-09-13T16:35:48.843Z,73.10
2023-09-13T16:38:16.877Z,73.00
2023-09-13T16:40:44.880Z,73.50
2023-09-13T16:43:12.850Z,73.50
2023-09-13T16:45:40.920Z,73.50
2023-09-13T16:48:19.642Z,73.40
2023-09-13T16:50:53.394Z,73.90
2023-09-13T16:53:22.261Z,73.90
2023-09-13T16:55:50.237Z,73.80
2023-09-13T16:58:18.484Z,73.70
2023-09-13T17:00:46.688Z,74.00
2023-09-13T17:03:14.833Z,74.00
2023-09-13T17:05:42.846Z,73.80
2023-09-13T17:08:12.236Z,73.50
2023-09-13T17:10:40.207Z,73.00
2023-09-13T17:13:08.186Z,72.90
2023-09-13T17:15:36.138Z,72.80
2023-09-13T17:18:04.526Z,72.90
2023-09-13T17:20:33.226Z,73.20
2023-09-13T17:23:01.468Z,73.40
2023-09-13T17:25:30.784Z,73.40
2023-09-13T17:27:58.763Z,73.30
2023-09-13T17:30:26.902Z,73.80
2023-09-13T17:32:54.979Z,73.60
2023-09-13T17:35:23.286Z,73.40
2023-09-13T17:37:51.713Z,73.20
2023-09-13T17:40:19.686Z,73.20
2023-09-13T17:42:49.132Z,73.20
2023-09-13T17:45:17.479Z,73.50
2023-09-13T17:47:46.477Z,73.50
2023-09-13T17:50:14.880Z,73.50
2023-09-13T17:52:42.984Z,73.40
2023-09-13T17:55:11.027Z,73.80
2023-09-13T17:57:39.058Z,73.60
2023-09-13T18:00:10.728Z,73.10
2023-09-13T18:02:38.795Z,73.40
2023-09-13T18:05:06.983Z,73.60
2023-09-13T18:07:37.881Z,74.30
2023-09-13T18:10:08.201Z,74.30
2023-09-13T18:12:36.323Z,74.10
2023-09-13T18:15:04.592Z,73.70
2023-09-13T18:17:52.163Z,73.60
2023-09-13T18:20:22.262Z,73.60
2023-09-13T18:22:50.233Z,73.40
2023-09-13T18:25:18.679Z,74.10
2023-09-13T18:27:46.802Z,74.20
2023-09-13T18:30:15.254Z,74.10
2023-09-13T18:32:44.552Z,74.00
2023-09-13T18:35:12.593Z,74.70
2023-09-13T18:37:40.626Z,74.80
2023-09-13T18:40:09.697Z,74.70
2023-09-13T18:42:38.042Z,74.50
2023-09-13T18:45:07.238Z,74.50
2023-09-13T18:47:35.303Z,75.40
2023-09-13T18:50:05.495Z,75.30
2023-09-13T18:52:33.531Z,75.00
2023-09-13T18:55:01.736Z,74.60
2023-09-13T18:57:32.633Z,74.20
2023-09-13T19:00:00.795Z,74.80
2023-09-13T19:02:28.941Z,74.10
2023-09-13T19:04:59.014Z,74.30
2023-09-13T19:07:28.389Z,74.50
2023-09-13T19:09:56.539Z,74.50
2023-09-13T19:12:24.682Z,74.50
2023-09-13T19:14:53.332Z,74.50
2023-09-13T19:17:21.345Z,75.10
2023-09-13T19:19:49.346Z,75.10
2023-09-13T19:22:17.349Z,75.00
2023-09-13T19:24:56.739Z,74.90
2023-09-13T19:27:25.689Z,75.50
2023-09-13T19:29:54.301Z,75.60
2023-09-13T19:32:22.322Z,75.30
2023-09-13T19:34:50.907Z,74.90
2023-09-13T19:37:18.967Z,74.50
2023-09-13T19:39:48.445Z,74.40
2023-09-13T19:42:16.571Z,74.30
2023-09-13T19:44:44.845Z,74.30
2023-09-13T19:47:13.924Z,74.40
2023-09-13T19:49:41.927Z,74.70
2023-09-13T19:52:10.011Z,74.90
2023-09-13T19:54:38.724Z,75.20
2023-09-13T19:57:08.551Z,75.30
2023-09-13T19:59:38.797Z,75.40
2023-09-13T20:02:08.012Z,75.60
2023-09-13T20:04:36.285Z,76.30
2023-09-13T20:07:04.347Z,76.20
2023-09-13T20:09:32.445Z,75.70
2023-09-13T20:12:04.656Z,75.10
2023-09-13T20:14:34.150Z,74.30
2023-09-13T20:17:02.294Z,73.50
2023-09-13T20:19:30.546Z,72.70
2023-09-13T20:21:58.609Z,71.80
2023-09-13T20:24:26.872Z,71.20
2023-09-13T20:26:54.903Z,70.70
2023-09-13T20:29:26.402Z,70.30
2023-09-13T20:31:55.958Z,70.00
2023-09-13T20:34:25.562Z,70.30
2023-09-13T20:36:53.653Z,70.80
2023-09-13T20:39:21.704Z,71.50
2023-09-13T20:41:49.898Z,72.00
2023-09-13T20:44:17.990Z,72.30
2023-09-13T20:46:46.004Z,72.70
2023-09-13T20:49:15.389Z,73.00
2023-09-13T20:51:43.501Z,73.50
2023-09-13T20:54:11.552Z,73.70
2023-09-13T20:56:39.592Z,73.40
2023-09-13T20:59:07.609Z,73.20
2023-09-13T21:01:35.748Z,72.90
2023-09-13T21:04:03.985Z,73.20
2023-09-13T21:06:33.472Z,74.00
2023-09-13T21:09:01.430Z,73.80
2023-09-13T21:11:29.419Z,74.20
2023-09-13T21:13:57.543Z,74.20
2023-09-13T21:16:25.737Z,74.30
2023-09-13T21:18:53.839Z,75.00
2023-09-13T21:21:21.860Z,75.00
2023-09-13T21:23:51.182Z,75.10
2023-09-13T21:26:19.143Z,74.80
2023-09-13T21:28:49.191Z,75.50
2023-09-13T21:31:17.292Z,75.50
2023-09-13T21:33:46.599Z,75.30
2023-09-13T21:36:15.777Z,74.80
2023-09-13T21:38:44.520Z,74.30
2023-09-13T21:41:14.321Z,74.20
2023-09-13T21:43:42.330Z,74.20
2023-09-13T21:46:10.414Z,74.50
2023-09-13T21:48:42.044Z,74.80
2023-09-13T21:51:11.770Z,74.90
2023-09-13T21:53:40.029Z,75.00
2023-09-13T21:56:08.734Z,75.80
2023-09-13T21:58:38.384Z,75.40
2023-09-13T22:01:06.751Z,75.50
2023-09-13T22:03:35.159Z,75.40
2023-09-13T22:06:03.821Z,75.30
2023-09-13T22:08:32.241Z,76.00
2023-09-13T22:11:04.421Z,75.80
2023-09-13T22:13:32.911Z,75.40
2023-09-13T22:16:02.641Z,75.10
2023-09-13T22:18:30.864Z,74.80
2023-09-13T22:21:00.729Z,74.60
2023-09-13T22:23:31.765Z,74.70
2023-09-13T22:26:00.131Z,75.00
2023-09-13T22:28:28.803Z,75.20
2023-09-13T22:31:01.180Z,75.20
2023-09-13T22:33:31.549Z,75.30
2023-09-13T22:36:03.709Z,75.40
2023-09-13T22:38:32.533Z,75.80
2023-09-13T22:41:01.540Z,75.80
2023-09-13T22:43:29.860Z,75.80
2023-09-13T22:45:58.189Z,75.60
2023-09-13T22:48:26.474Z,76.10
2023-09-13T22:50:58.393Z,76.00
2023-09-13T22:53:26.561Z,75.60
2023-09-13T22:55:55.034Z,75.10
2023-09-13T22:58:23.337Z,74.90
2023-09-13T23:00:51.482Z,74.80
2023-09-13T23:03:27.092Z,74.90
2023-09-13T23:06:07.545Z,75.10
2023-09-13T23:08:38.871Z,75.30
2023-09-13T23:11:07.487Z,75.40
2023-09-13T23:13:35.787Z,75.30
2023-09-13T23:16:05.212Z,75.80
2023-09-13T23:18:34.113Z,75.80
2023-09-13T23:21:02.494Z,75.90
2023-09-13T23:23:32.299Z,75.80
2023-09-13T23:26:02.132Z,75.80
2023-09-13T23:28:30.221Z,76.20
2023-09-13T23:31:08.449Z,75.90
2023-09-13T23:33:36.795Z,75.60
2023-09-13T23:36:05.103Z,75.30
2023-09-13T23:38:34.427Z,75.10
2023-09-13T23:41:05.957Z,75.20
2023-09-13T23:43:34.043Z,75.10
2023-09-13T23:46:02.097Z,75.60
2023-09-13T23:48:30.185Z,75.60
2023-09-13T23:50:58.266Z,75.70
2023-09-13T23:53:26.204Z,75.50
2023-09-13T23:55:55.535Z,76.00
2023-09-13T23:58:23.577Z,76.00
